Time;durP1;ratioP1;P1;durP2;ratioP2;P2;SDS_P1;SDS_P2;PMS_P1;PMS_P2;Temp;Humidity;BMP_temperature;BMP_pressure;BME280_temperature;BME280_humidity;BME280_pressure;Samples;Min_cycle;Max_cycle;Signal;HPM_P1;HPM_P2
2021/06/06 00:01:58;;;;;;;38.55;25.63;;;;;;;19.08;66.31;100408.44;5019779;28;20100;-84
2021/06/06 00:04:32;;;;;;;31.88;23.52;;;;;;;19.12;65.28;100409.88;5037231;28;20053;-84
2021/06/06 00:07:08;;;;;;;32.90;24.45;;;;;;;19.11;65.47;100413.50;5036731;28;20137;-84
2021/06/06 00:10:03;;;;;;;36.70;26.88;;;;;;;19.05;66.50;100406.00;5037931;28;20080;-84
2021/06/06 00:13:16;;;;;;;32.70;25.35;;;;;;;19.04;65.92;100408.75;5033045;28;20075;-84
2021/06/06 00:16:35;;;;;;;30.80;23.27;;;;;;;18.99;65.94;100403.81;5034698;28;20140;-85
2021/06/06 00:19:34;;;;;;;34.72;24.77;;;;;;;18.95;66.02;100402.38;5036652;28;20064;-84
2021/06/06 00:22:08;;;;;;;35.17;25.23;;;;;;;18.92;65.53;100408.81;5036467;28;20081;-84
2021/06/06 00:24:48;;;;;;;32.00;24.13;;;;;;;18.89;65.46;100404.56;5032573;28;20475;-84
2021/06/06 00:27:15;;;;;;;29.55;24.60;;;;;;;18.86;65.55;100406.63;5033348;28;20076;-84
2021/06/06 00:30:05;;;;;;;34.50;26.02;;;;;;;18.77;66.11;100394.91;5036768;28;20513;-84
2021/06/06 00:32:41;;;;;;;35.35;25.48;;;;;;;18.74;66.08;100400.50;5034222;28;20049;-84
2021/06/06 00:35:16;;;;;;;32.30;24.75;;;;;;;18.73;65.68;100398.81;5034326;28;20041;-85
2021/06/06 00:37:43;;;;;;;31.67;24.83;;;;;;;18.69;65.60;100406.19;5034099;28;20053;-83
2021/06/06 00:40:46;;;;;;;29.48;23.92;;;;;;;18.62;66.29;100408.50;5035734;28;20067;-83
2021/06/06 00:44:28;;;;;;;33.00;23.45;;;;;;;18.58;66.58;100411.56;4975551;28;20171;-85
2021/06/06 00:47:20;;;;;;;33.80;24.45;;;;;;;18.56;66.59;100409.00;4971984;28;20062;-83
2021/06/06 00:54:56;;;;;;;29.40;23.10;;;;;;;18.54;66.03;100410.94;4879928;29;20419;-84
2021/06/06 01:21:43;;;;;;;29.35;22.13;;;;;;;18.66;65.92;100422.47;4826996;29;20122;-83
2021/06/06 01:28:38;;;;;;;32.92;24.00;;;;;;;18.68;65.63;100425.84;4843080;29;20516;-83
2021/06/06 01:32:30;;;;;;;32.65;24.00;;;;;;;18.65;65.74;100418.06;4815763;29;20093;-83
2021/06/06 01:35:10;;;;;;;31.92;22.63;;;;;;;18.64;65.58;100420.88;4863348;29;20053;-84
2021/06/06 01:37:54;;;;;;;;;;;;;;;;;;;;;
2021/06/06 01:43:58;;;;;;;36.85;24.75;;;;;;;18.62;65.44;100416.50;4916139;29;20399;-83
2021/06/06 01:47:37;;;;;;;34.97;24.50;;;;;;;18.58;66.17;100416.91;4966782;28;20129;-84
2021/06/06 01:54:55;;;;;;;39.50;26.33;;;;;;;18.56;65.79;100403.69;4862202;29;20790;-83
2021/06/06 01:58:19;;;;;;;;;;;;;;;;;;;;;
2021/06/06 02:01:27;;;;;;;35.70;25.70;;;;;;;18.47;65.49;100417.75;4901356;29;20104;-84
2021/06/06 02:04:32;;;;;;;39.00;25.60;;;;;;;18.41;65.09;100411.09;4823435;29;20081;-84
2021/06/06 02:07:54;;;;;;;36.70;25.20;;;;;;;18.33;65.99;100417.03;4903909;29;20440;-83
2021/06/06 02:10:42;;;;;;;27.33;21.63;;;;;;;18.31;65.84;100410.97;4968477;28;20077;-83
2021/06/06 02:13:29;;;;;;;30.45;22.60;;;;;;;18.28;66.13;100415.69;4976399;28;20455;-85
2021/06/06 02:16:51;;;;;;;26.95;20.55;;;;;;;18.24;66.29;100420.41;4985897;28;20091;-84
2021/06/06 02:19:27;;;;;;;28.70;20.83;;;;;;;18.25;66.08;100427.47;4992251;28;20050;-83
2021/06/06 02:22:23;;;;;;;27.75;21.17;;;;;;;18.20;66.16;100426.94;4992086;28;20097;-84
2021/06/06 02:28:46;;;;;;;27.05;19.95;;;;;;;18.20;66.13;100424.28;4910590;29;20100;-83
2021/06/06 02:31:29;;;;;;;26.27;20.52;;;;;;;18.17;66.40;100427.22;4913634;29;20048;-83
2021/06/06 02:34:19;;;;;;;27.45;20.60;;;;;;;18.19;66.33;100423.44;4915050;29;20135;-84
2021/06/06 02:37:01;;;;;;;28.42;20.92;;;;;;;18.17;66.74;100425.38;4938349;28;20062;-85
2021/06/06 02:39:34;;;;;;;25.05;19.20;;;;;;;18.20;66.48;100430.47;4972765;28;20057;-84
2021/06/06 02:42:25;;;;;;;25.83;18.67;;;;;;;18.19;66.74;100426.13;4973509;28;20054;-84
2021/06/06 02:45:00;;;;;;;23.13;17.80;;;;;;;18.23;66.56;100424.06;4972971;28;20065;-84
2021/06/06 02:47:34;;;;;;;26.92;19.00;;;;;;;18.23;66.35;100424.91;4969368;28;20121;-84
2021/06/06 02:50:12;;;;;;;24.90;18.75;;;;;;;18.22;66.29;100417.88;4972293;28;20102;-83
2021/06/06 02:53:15;;;;;;;23.35;17.45;;;;;;;18.22;66.80;100425.88;4972574;28;20055;-83
2021/06/06 02:56:05;;;;;;;23.95;17.92;;;;;;;18.25;66.25;100421.28;4960124;28;20061;-85
2021/06/06 02:58:50;;;;;;;23.40;18.85;;;;;;;18.23;66.36;100419.56;4953632;29;20130;-84
2021/06/06 03:01:22;;;;;;;23.27;18.42;;;;;;;18.24;66.26;100420.41;4957183;28;20066;-84
2021/06/06 03:03:51;;;;;;;23.95;17.67;;;;;;;18.25;66.15;100416.78;5012665;28;20049;-83
2021/06/06 03:07:03;;;;;;;24.08;18.33;;;;;;;18.19;66.60;100418.13;5013200;28;20110;-83
2021/06/06 03:09:53;;;;;;;23.15;17.48;;;;;;;18.19;66.59;100417.25;5013785;28;20054;-83
2021/06/06 03:12:30;;;;;;;21.98;17.25;;;;;;;18.19;66.02;100417.25;5013309;28;20104;-83
2021/06/06 03:15:01;;;;;;;22.08;17.58;;;;;;;18.17;66.19;100413.88;5013206;28;20081;-83
2021/06/06 03:17:35;;;;;;;29.38;19.65;;;;;;;18.14;66.65;100422.13;5012382;28;20084;-83
2021/06/06 03:20:10;;;;;;;28.67;21.08;;;;;;;18.12;66.75;100422.22;5013391;28;20092;-83
2021/06/06 03:23:01;;;;;;;25.58;20.67;;;;;;;18.08;66.88;100418.09;5014164;28;20046;-83
2021/06/06 03:25:38;;;;;;;25.30;19.27;;;;;;;18.10;66.96;100422.34;5013299;28;20046;-84
2021/06/06 03:28:12;;;;;;;26.00;19.55;;;;;;;18.12;66.74;100424.88;5016491;28;20501;-84
2021/06/06 03:31:16;;;;;;;24.92;18.27;;;;;;;18.08;67.05;100418.97;5015037;28;20053;-86
2021/06/06 03:33:43;;;;;;;22.60;17.85;;;;;;;18.13;66.21;100417.75;5033322;28;20089;-85
2021/06/06 03:36:15;;;;;;;24.80;17.38;;;;;;;18.09;66.77;100418.00;5032863;28;20053;-85
2021/06/06 03:38:42;;;;;;;;;;;;;;;18.10;66.28;100422.34;5034459;28;20118;-85
2021/06/06 03:41:12;;;;;;;18.90;15.50;;;;;;;18.12;66.18;100421.41;5033058;28;19943;-86
2021/06/06 03:43:39;;;;;;;20.70;16.83;;;;;;;18.08;66.21;100424.28;5013646;28;20054;-83
2021/06/06 03:46:06;;;;;;;21.73;16.75;;;;;;;18.06;66.49;100422.69;5011458;28;20535;-84
2021/06/06 03:48:48;;;;;;;23.02;16.65;;;;;;;18.04;66.71;100424.59;5013476;28;20068;-84
2021/06/06 03:51:15;;;;;;;19.48;15.55;;;;;;;18.03;66.57;100420.25;5011976;28;20076;-85
2021/06/06 03:53:42;;;;;;;20.17;15.20;;;;;;;18.03;66.64;100417.59;5013646;28;20057;-82
2021/06/06 03:57:40;;;;;;;19.35;16.27;;;;;;;17.97;67.13;100418.91;5010673;28;20472;-83
2021/06/06 04:01:22;;;;;;;18.38;13.75;;;;;;;17.98;66.83;100431.25;4914980;28;20078;-83
2021/06/06 04:04:21;;;;;;;24.35;16.10;;;;;;;17.98;66.78;100428.59;5011835;28;20054;-84
2021/06/06 04:07:03;;;;;;;21.80;16.73;;;;;;;17.99;66.58;100432.97;5011286;28;20058;-85
2021/06/06 04:09:33;;;;;;;27.02;18.70;;;;;;;17.95;66.90;100428.84;5028407;28;20068;-84
2021/06/06 04:12:00;;;;;;;21.73;16.05;;;;;;;17.94;66.76;100421.84;5014667;28;20054;-84
2021/06/06 04:14:27;;;;;;;22.00;18.25;;;;;;;17.92;66.66;100426.41;5017030;28;20058;-84
2021/06/06 04:16:53;;;;;;;22.08;18.08;;;;;;;17.91;66.71;100425.56;5015608;28;20108;-82
2021/06/06 04:19:23;;;;;;;23.13;17.38;;;;;;;17.90;67.15;100423.88;5016968;28;20086;-83
2021/06/06 04:21:53;;;;;;;;;;;;;;;17.89;67.43;100416.00;5016828;28;20049;-85
2021/06/06 04:24:27;;;;;;;22.88;17.58;;;;;;;17.93;66.57;100420.13;5016565;28;19971;-83
2021/06/06 04:27:11;;;;;;;23.52;18.30;;;;;;;17.88;67.29;100419.63;5015098;28;20053;-83
2021/06/06 04:29:55;;;;;;;25.20;18.70;;;;;;;17.90;66.83;100425.72;5016188;28;20601;-83
2021/06/06 04:32:44;;;;;;;23.35;17.88;;;;;;;17.86;67.35;100421.59;5013593;28;20501;-85
2021/06/06 04:35:15;;;;;;;24.38;18.23;;;;;;;17.87;66.86;100420.59;5015780;28;20419;-84
2021/06/06 04:37:42;;;;;;;23.13;17.60;;;;;;;17.84;67.02;100422.53;4998925;28;20088;-85
2021/06/06 04:40:11;;;;;;;22.48;17.40;;;;;;;17.82;67.21;100421.81;5016986;28;20069;-83
2021/06/06 04:42:43;;;;;;;28.35;19.00;;;;;;;17.84;67.21;100419.84;5016503;28;20057;-83
2021/06/06 04:45:16;;;;;;;27.90;19.23;;;;;;;17.81;67.35;100420.13;5017607;28;20050;-83
2021/06/06 04:47:48;;;;;;;22.98;18.10;;;;;;;17.82;67.12;100419.16;5023828;28;20103;-84
2021/06/06 04:50:35;;;;;;;22.15;17.88;;;;;;;17.80;68.05;100422.91;5034604;28;20053;-83
2021/06/06 04:57:46;;;;;;;24.48;17.85;;;;;;;17.86;67.90;100421.59;4993521;28;20057;-85
2021/06/06 05:00:42;;;;;;;23.77;17.60;;;;;;;17.93;67.26;100425.44;4934575;29;20143;-83
2021/06/06 05:03:20;;;;;;;22.70;17.95;;;;;;;17.92;67.62;100416.63;4991993;28;20054;-83
2021/06/06 05:05:49;;;;;;;24.35;17.33;;;;;;;17.94;67.30;100422.66;4961646;28;20137;-83
2021/06/06 05:08:34;;;;;;;21.48;17.83;;;;;;;17.91;67.83;100414.06;4975370;28;20198;-83
2021/06/06 05:15:28;;;;;;;24.58;17.02;;;;;;;17.98;67.32;100420.59;4897914;29;20048;-83
2021/06/06 05:23:22;;;;;;;;;;;;;;;;;;;;;
2021/06/06 05:26:18;;;;;;;25.50;17.58;;;;;;;18.04;67.42;100422.81;4962019;28;20086;-83
2021/06/06 05:29:36;;;;;;;29.30;21.77;;;;;;;18.04;67.82;100422.81;4970711;28;20145;-83
2021/06/06 05:32:51;;;;;;;28.65;19.70;;;;;;;18.07;67.55;100429.72;4980635;28;20054;-85
2021/06/06 05:36:01;;;;;;;25.42;19.67;;;;;;;18.08;67.46;100423.44;4984013;28;20058;-85
2021/06/06 05:38:38;;;;;;;;;;;;;;;18.14;66.91;100430.09;5025182;28;20052;-85
2021/06/06 05:41:11;;;;;;;26.95;21.17;;;;;;;18.20;66.68;100429.59;5035395;28;19927;-84
2021/06/06 05:44:25;;;;;;;;;;;;;;;;;;;;;
2021/06/06 05:47:24;;;;;;;27.60;20.33;;;;;;;18.16;67.23;100433.50;5034021;28;20053;-84
2021/06/06 05:50:44;;;;;;;31.77;22.77;;;;;;;18.12;67.62;100430.22;5033532;28;20077;-85
2021/06/06 05:53:35;;;;;;;32.88;23.48;;;;;;;18.19;66.91;100433.25;5033518;28;20057;-84
2021/06/06 05:56:20;;;;;;;30.85;22.52;;;;;;;18.19;67.25;100438.56;5016274;28;20484;-85
2021/06/06 05:58:48;;;;;;;28.25;20.25;;;;;;;18.18;67.32;100439.56;5014293;28;20053;-86
2021/06/06 06:01:15;;;;;;;29.15;23.10;;;;;;;18.20;67.55;100448.25;5014371;28;20050;-84
2021/06/06 06:03:42;;;;;;;31.42;22.08;;;;;;;18.21;67.32;100447.31;5013525;28;20100;-85
2021/06/06 06:06:09;;;;;;;34.03;24.58;;;;;;;18.23;67.30;100446.22;5013666;28;20068;-85
2021/06/06 06:08:38;;;;;;;33.45;23.83;;;;;;;18.23;67.09;100446.22;5014392;28;20060;-85
2021/06/06 06:11:07;;;;;;;32.75;24.15;;;;;;;18.24;67.30;100447.06;5021394;28;20053;-85
2021/06/06 06:13:35;;;;;;;31.38;22.65;;;;;;;18.24;67.10;100452.38;5028814;28;20508;-85
2021/06/06 06:16:06;;;;;;;30.30;23.33;;;;;;;18.25;67.51;100451.44;5014596;28;20057;-84
2021/06/06 06:18:33;;;;;;;34.80;24.83;;;;;;;18.26;67.25;100455.78;5014262;28;20045;-86
2021/06/06 06:21:02;;;;;;;33.22;23.33;;;;;;;18.26;67.24;100450.47;5014329;28;20081;-85
2021/06/06 06:23:28;;;;;;;31.80;23.05;;;;;;;18.27;67.49;100451.31;5013296;28;20415;-85
2021/06/06 06:25:55;;;;;;;37.50;23.83;;;;;;;18.28;67.64;100451.19;5012751;28;20054;-85
2021/06/06 06:28:23;;;;;;;30.02;21.75;;;;;;;18.28;67.45;100453.84;5024844;28;20053;-84
2021/06/06 06:30:50;;;;;;;33.65;25.42;;;;;;;18.29;67.44;100455.56;5034241;28;20053;-84
2021/06/06 06:33:17;;;;;;;35.58;25.50;;;;;;;18.30;67.55;100462.56;5034238;28;20057;-85
2021/06/06 06:35:44;;;;;;;32.55;24.05;;;;;;;18.32;67.53;100460.63;5032641;28;20441;-86
2021/06/06 06:38:11;;;;;;;32.33;24.40;;;;;;;18.34;67.79;100457.84;5031478;28;20053;-85
2021/06/06 06:40:38;;;;;;;31.35;23.75;;;;;;;18.36;67.59;100463.91;5033631;28;20061;-84
2021/06/06 06:43:05;;;;;;;36.17;26.00;;;;;;;18.38;67.59;100463.81;5034759;28;20053;-85
2021/06/06 06:45:39;;;;;;;34.97;25.63;;;;;;;18.36;67.57;100455.91;5032762;28;20080;-85
2021/06/06 06:48:18;;;;;;;34.55;25.20;;;;;;;18.39;67.19;100462.81;5032904;28;20070;-83
2021/06/06 06:50:46;;;;;;;31.40;23.17;;;;;;;18.40;67.02;100459.19;5033812;28;20491;-85
2021/06/06 06:53:14;;;;;;;34.95;25.42;;;;;;;18.40;67.35;100464.50;5033446;28;20060;-86
2021/06/06 06:55:40;;;;;;;36.08;24.83;;;;;;;18.40;67.24;100469.84;5034175;28;20064;-85
2021/06/06 06:58:08;;;;;;;34.58;25.95;;;;;;;18.41;66.97;100466.19;5034418;28;20061;-85
2021/06/06 07:00:43;;;;;;;32.03;25.25;;;;;;;18.38;67.17;100464.63;5032306;28;20461;-85
2021/06/06 07:03:14;;;;;;;31.58;23.52;;;;;;;18.40;67.15;100476.03;5032916;28;20084;-84
2021/06/06 07:05:42;;;;;;;31.35;23.80;;;;;;;18.40;67.10;100475.19;5030615;28;20045;-85
2021/06/06 07:08:12;;;;;;;32.20;24.17;;;;;;;18.39;66.83;100474.31;5034940;28;20060;-85
2021/06/06 07:10:41;;;;;;;33.42;24.27;;;;;;;18.39;67.31;100474.31;5033637;28;20107;-84
2021/06/06 07:13:08;;;;;;;28.48;22.30;;;;;;;18.39;66.79;100479.66;5035014;28;20107;-85
2021/06/06 07:15:36;;;;;;;28.88;22.70;;;;;;;18.40;67.16;100478.69;5033022;28;20709;-85
2021/06/06 07:18:07;;;;;;;28.90;23.45;;;;;;;18.40;67.39;100483.16;5031608;28;20399;-84
2021/06/06 07:20:35;;;;;;;32.10;24.05;;;;;;;18.43;67.17;100493.59;5033201;28;20135;-85
2021/06/06 07:23:05;;;;;;;30.50;23.15;;;;;;;18.45;66.96;100488.97;5033844;28;20112;-85
2021/06/06 07:25:32;;;;;;;30.38;22.40;;;;;;;18.45;66.65;100494.31;5025698;28;20049;-86
2021/06/06 07:28:00;;;;;;;30.60;23.00;;;;;;;18.44;66.78;100488.16;5014256;28;20046;-86
2021/06/06 07:30:31;;;;;;;28.02;22.40;;;;;;;18.45;66.92;100488.97;5012796;28;20062;-86
2021/06/06 07:32:58;;;;;;;29.88;22.88;;;;;;;18.46;66.81;100488.00;5012630;28;20503;-86
2021/06/06 07:35:30;;;;;;;30.60;22.65;;;;;;;18.47;67.36;100487.91;5012375;28;20053;-84
2021/06/06 07:37:57;;;;;;;25.17;21.40;;;;;;;18.51;67.40;100485.84;5013428;28;20435;-84
2021/06/06 07:40:30;;;;;;;27.80;21.67;;;;;;;18.55;67.22;100489.13;5013267;28;20551;-84
2021/06/06 07:42:56;;;;;;;26.77;21.75;;;;;;;18.61;67.07;100484.13;5015171;28;20049;-85
2021/06/06 07:45:24;;;;;;;26.60;20.08;;;;;;;18.69;67.21;100485.34;5013961;28;20167;-84
2021/06/06 07:47:51;;;;;;;23.90;20.70;;;;;;;18.74;66.95;100476.03;5017474;28;20068;-85
2021/06/06 07:50:22;;;;;;;25.25;21.40;;;;;;;18.81;66.95;100486.19;5017718;28;20088;-86
2021/06/06 07:52:48;;;;;;;26.67;20.15;;;;;;;18.89;66.24;100487.25;5017791;28;20444;-85
2021/06/06 07:55:19;;;;;;;25.02;20.55;;;;;;;18.97;66.22;100491.13;5016247;28;20499;-85
2021/06/06 07:57:45;;;;;;;24.55;20.38;;;;;;;19.06;66.27;100485.06;5015566;28;20104;-86
2021/06/06 08:00:16;;;;;;;25.67;20.02;;;;;;;19.11;65.76;100488.19;5035628;28;20053;-86
2021/06/06 08:02:43;;;;;;;25.05;21.02;;;;;;;19.20;65.31;100485.75;5037234;28;20049;-83
2021/06/06 08:05:10;;;;;;;25.48;20.08;;;;;;;19.25;65.31;100488.91;5037060;28;20569;-85
2021/06/06 08:07:37;;;;;;;28.13;20.67;;;;;;;19.30;65.05;100489.38;5037056;28;20649;-85
2021/06/06 08:10:07;;;;;;;25.00;20.25;;;;;;;19.32;65.09;100489.25;5036416;28;20573;-86
2021/06/06 08:12:34;;;;;;;24.67;20.15;;;;;;;19.36;64.90;100496.03;5035249;28;20057;-85
2021/06/06 08:15:00;;;;;;;27.73;21.17;;;;;;;19.39;64.80;100495.75;5032706;28;20136;-85
2021/06/06 08:17:27;;;;;;;25.77;20.52;;;;;;;19.42;64.85;100492.00;5035542;28;20049;-84
2021/06/06 08:19:53;;;;;;;27.13;21.60;;;;;;;19.46;64.90;100501.44;5038037;28;20057;-85
2021/06/06 08:22:21;;;;;;;26.50;21.38;;;;;;;19.46;64.42;100502.31;5036121;28;20053;-85
2021/06/06 08:24:47;;;;;;;25.35;21.00;;;;;;;19.48;64.49;100497.66;5036843;28;20061;-85
2021/06/06 08:27:14;;;;;;;25.25;21.08;;;;;;;19.49;64.43;100501.19;5035148;28;20053;-85
2021/06/06 08:29:42;;;;;;;24.60;21.42;;;;;;;19.50;64.52;100506.41;5035317;28;20059;-86
2021/06/06 08:32:10;;;;;;;29.00;22.20;;;;;;;19.51;64.13;100504.59;5025183;28;20502;-84
2021/06/06 08:34:37;;;;;;;24.45;20.73;;;;;;;19.51;64.12;100504.59;5017234;28;20054;-84
2021/06/06 08:37:05;;;;;;;27.30;22.45;;;;;;;19.49;63.80;100506.53;5015969;28;20096;-84
2021/06/06 08:39:34;;;;;;;25.27;21.40;;;;;;;19.47;64.08;100500.50;5016431;28;20070;-85
2021/06/06 08:42:24;;;;;;;26.00;20.65;;;;;;;19.48;64.54;100499.50;5017176;28;20058;-85
2021/06/06 08:45:05;;;;;;;25.30;21.48;;;;;;;19.45;64.27;100497.09;5008627;28;20054;-85
2021/06/06 08:47:33;;;;;;;26.30;21.98;;;;;;;19.50;64.25;100498.41;5036609;28;20038;-84
2021/06/06 08:50:13;;;;;;;29.75;22.80;;;;;;;19.51;63.71;100509.94;5025298;28;20053;-84
2021/06/06 08:52:54;;;;;;;28.52;23.05;;;;;;;19.53;63.86;100507.97;5016035;28;20050;-84
2021/06/06 08:55:40;;;;;;;26.27;21.30;;;;;;;19.48;64.17;100510.19;5017035;28;20050;-84
2021/06/06 08:58:32;;;;;;;29.00;21.98;;;;;;;19.50;64.38;100513.56;5020304;28;20096;-86
2021/06/06 09:01:14;;;;;;;26.02;21.60;;;;;;;19.51;64.73;100512.63;5035210;28;20054;-85
2021/06/06 09:03:41;;;;;;;31.17;23.15;;;;;;;19.58;64.76;100513.78;5033166;28;20053;-84
2021/06/06 09:06:25;;;;;;;26.55;21.63;;;;;;;19.60;64.86;100505.66;5033153;28;20115;-85
2021/06/06 09:08:52;;;;;;;27.52;22.10;;;;;;;19.70;64.78;100509.22;5034626;28;20057;-84
2021/06/06 09:11:24;;;;;;;26.75;21.55;;;;;;;19.75;64.51;100503.50;5035000;28;20061;-86
2021/06/06 09:13:50;;;;;;;27.35;20.92;;;;;;;19.84;64.40;100512.59;5035605;28;20103;-87
2021/06/06 09:16:25;;;;;;;24.33;20.45;;;;;;;19.88;63.77;100508.66;5034733;28;20582;-86
2021/06/06 09:19:25;;;;;;;25.45;19.75;;;;;;;19.90;64.04;100512.91;5035400;28;20111;-84
2021/06/06 09:22:02;;;;;;;25.60;18.92;;;;;;;19.95;63.45;100515.19;4989740;28;20053;-84
2021/06/06 09:24:39;;;;;;;24.13;20.08;;;;;;;19.99;63.61;100518.47;5034718;28;20111;-86
2021/06/06 09:27:20;;;;;;;27.50;20.27;;;;;;;20.01;63.53;100503.16;5033106;28;20557;-85
2021/06/06 09:30:01;;;;;;;26.30;21.05;;;;;;;20.07;63.95;100513.31;5017226;28;20054;-86
2021/06/06 09:32:28;;;;;;;26.50;20.42;;;;;;;20.17;63.10;100519.59;5014323;28;20461;-85
2021/06/06 09:35:08;;;;;;;23.35;18.42;;;;;;;20.17;63.10;100518.72;5014256;28;20049;-86
2021/06/06 09:37:43;;;;;;;22.08;17.27;;;;;;;20.19;62.58;100519.47;5015576;28;20053;-85
2021/06/06 09:40:14;;;;;;;23.10;18.63;;;;;;;20.21;62.69;100511.28;5013882;28;20061;-86
2021/06/06 09:42:49;;;;;;;22.33;18.10;;;;;;;20.22;62.96;100513.00;5015681;28;20076;-87
2021/06/06 09:45:35;;;;;;;20.30;16.92;;;;;;;20.27;63.41;100516.97;5015503;28;20438;-87
2021/06/06 09:48:16;;;;;;;23.67;18.13;;;;;;;20.40;63.87;100516.75;5013817;28;20097;-87
2021/06/06 09:51:10;;;;;;;26.02;17.38;;;;;;;20.57;63.91;100517.94;5014378;28;20054;-85
2021/06/06 09:53:39;;;;;;;22.50;17.45;;;;;;;20.75;63.87;100516.47;5015122;28;20050;-86
2021/06/06 09:56:23;;;;;;;22.90;17.08;;;;;;;20.85;62.83;100514.66;5016977;28;20066;-86
2021/06/06 09:58:55;;;;;;;21.92;16.73;;;;;;;21.01;62.13;100518.69;5016343;28;20046;-85
2021/06/06 10:01:34;;;;;;;20.98;16.05;;;;;;;21.02;61.41;100517.69;5017724;28;20049;-85
2021/06/06 10:04:24;;;;;;;24.80;16.83;;;;;;;21.07;61.48;100515.44;5014981;28;20057;-84
2021/06/06 10:06:51;;;;;;;19.95;15.13;;;;;;;21.10;61.47;100517.84;5014002;28;20054;-85
2021/06/06 10:09:18;;;;;;;21.58;16.60;;;;;;;21.06;61.75;100522.66;5014250;28;20057;-86
2021/06/06 10:11:57;;;;;;;21.58;16.38;;;;;;;21.02;60.90;100525.72;5014720;28;20049;-84
2021/06/06 10:14:48;;;;;;;19.60;15.65;;;;;;;20.99;60.83;100534.03;5015764;28;20418;-85
2021/06/06 10:17:32;;;;;;;19.52;15.60;;;;;;;20.96;60.64;100536.00;5015108;28;20157;-84
2021/06/06 10:20:05;;;;;;;20.67;15.73;;;;;;;20.92;60.74;100536.41;5019386;28;20082;-83
2021/06/06 10:22:37;;;;;;;22.25;17.55;;;;;;;20.88;60.24;100541.19;5015874;28;20057;-84
2021/06/06 10:25:11;;;;;;;20.65;15.48;;;;;;;20.83;60.55;100544.22;5011759;28;20107;-84
2021/06/06 10:27:45;;;;;;;24.55;16.75;;;;;;;20.79;60.55;100544.66;5012927;28;20058;-85
2021/06/06 10:30:17;;;;;;;19.73;16.52;;;;;;;;;;5013374;28;20049;-86
2021/06/06 10:32:46;;;;;;;22.83;16.92;;;;;;;20.74;60.43;100544.22;5013585;28;20420;-86
2021/06/06 10:35:16;;;;;;;21.30;17.35;;;;;;;20.70;60.75;100551.63;5014051;28;20060;-86
2021/06/06 10:37:46;;;;;;;21.95;16.80;;;;;;;20.67;60.95;100550.06;5014817;28;20488;-86
2021/06/06 10:40:24;;;;;;;26.00;17.48;;;;;;;20.62;60.64;100544.28;5012781;28;20580;-84
2021/06/06 10:42:59;;;;;;;23.77;17.17;;;;;;;20.61;60.62;100541.75;5013173;28;20100;-86
2021/06/06 10:45:32;;;;;;;22.00;16.70;;;;;;;20.57;61.32;100552.69;5013569;28;20057;-87
2021/06/06 10:48:14;;;;;;;22.23;17.63;;;;;;;20.54;61.19;100544.09;5014671;28;20054;-84
2021/06/06 10:50:45;;;;;;;23.35;17.70;;;;;;;20.51;61.50;100545.22;5015683;28;20124;-89
2021/06/06 11:19:53;;;;;;;18.15;13.38;;;;;;;20.31;62.10;100541.59;5011121;28;20533;-89
2021/06/06 11:22:43;;;;;;;15.80;12.57;;;;;;;20.34;62.16;100541.34;4992269;28;20062;-88
2021/06/06 11:25:51;;;;;;;16.00;12.25;;;;;;;20.36;62.17;100538.50;4900633;29;20522;-88
2021/06/06 11:35:05;;;;;;;14.73;11.07;;;;;;;20.39;62.03;100540.94;4931974;29;20066;-90
2021/06/06 11:38:26;;;;;;;14.48;10.93;;;;;;;20.39;61.63;100541.78;4948547;28;20054;-89
2021/06/06 11:41:22;;;;;;;14.32;11.02;;;;;;;20.37;62.13;100532.22;4903177;29;20056;-89
2021/06/06 11:43:57;;;;;;;14.67;11.00;;;;;;;20.34;62.08;100535.16;4934616;29;20055;-89
2021/06/06 11:46:31;;;;;;;15.60;10.75;;;;;;;20.35;61.90;100539.50;4918824;29;20505;-89
2021/06/06 11:49:27;;;;;;;12.10;10.32;;;;;;;20.29;62.56;100532.84;4934909;29;20059;-89
2021/06/06 11:52:05;;;;;;;15.50;11.38;;;;;;;20.31;62.57;100529.06;4918389;29;20523;-89
2021/06/06 11:54:52;;;;;;;16.20;11.52;;;;;;;20.28;62.41;100532.03;4921659;29;20066;-88
2021/06/06 11:57:41;;;;;;;15.60;12.07;;;;;;;20.29;62.69;100531.03;4998336;28;20050;-88
2021/06/06 12:00:46;;;;;;;15.07;11.82;;;;;;;20.26;63.07;100525.13;4996874;28;20049;-88
2021/06/06 12:03:37;;;;;;;15.77;12.65;;;;;;;20.34;63.30;100527.13;5194411;22;98702;-88
2021/06/06 12:06:20;;;;;;;16.90;14.52;;;;;;;20.38;63.24;100528.56;5035125;28;20522;-88
2021/06/06 12:09:24;;;;;;;16.92;14.65;;;;;;;20.40;63.22;100529.25;5018017;28;20046;-88
2021/06/06 12:12:17;;;;;;;16.05;12.38;;;;;;;20.48;63.21;100525.94;5017176;28;20056;-89
2021/06/06 12:15:18;;;;;;;11.50;9.88;;;;;;;20.49;62.74;100525.81;5006577;28;20081;-88
2021/06/06 12:18:17;;;;;;;10.40;8.48;;;;;;;20.52;62.37;100525.53;5018975;28;20586;-89
2021/06/06 12:21:16;;;;;;;9.63;8.23;;;;;;;20.49;62.44;100530.28;5017685;28;20053;-90
2021/06/06 12:24:05;;;;;;;10.10;8.07;;;;;;;20.47;62.55;100532.25;4999879;28;20429;-89
2021/06/06 12:26:41;;;;;;;9.18;8.18;;;;;;;20.45;62.31;100529.72;4998133;28;20061;-90
2021/06/06 12:29:37;;;;;;;8.60;7.35;;;;;;;20.39;62.77;100523.09;4983383;28;20053;-87
2021/06/06 12:32:21;;;;;;;8.43;7.03;;;;;;;20.40;63.14;100530.13;4992847;28;20046;-88
2021/06/06 12:34:48;;;;;;;10.07;7.75;;;;;;;20.46;62.88;100531.41;4976741;28;20058;-89
2021/06/06 12:37:20;;;;;;;9.35;7.97;;;;;;;20.47;62.49;100530.44;4992716;28;20053;-89
2021/06/06 12:39:54;;;;;;;8.57;7.60;;;;;;;20.49;62.76;100532.97;4992799;28;20058;-89
2021/06/06 12:42:23;;;;;;;9.35;7.80;;;;;;;20.52;62.86;100535.38;4976754;28;20113;-89
2021/06/06 12:44:54;;;;;;;11.85;8.63;;;;;;;20.53;62.29;100529.06;4992501;28;20455;-89
2021/06/06 12:47:35;;;;;;;10.23;8.93;;;;;;;20.52;62.10;100528.19;4992785;28;20054;-89
2021/06/06 12:50:05;;;;;;;9.95;8.63;;;;;;;20.54;62.01;100526.25;4992267;28;20054;-89
2021/06/06 12:53:01;;;;;;;10.38;8.85;;;;;;;20.53;62.12;100529.06;4976335;28;20483;-89
2021/06/06 12:55:50;;;;;;;11.60;9.10;;;;;;;20.51;62.29;100537.19;4960470;28;20508;-90
2021/06/06 13:04:40;;;;;;;16.08;13.50;;;;;;;20.49;62.17;100533.84;5045869;28;20402;-87
2021/06/06 13:07:38;;;;;;;19.63;14.70;;;;;;;20.44;62.22;100539.56;5017883;28;20145;-87
2021/06/06 13:10:17;;;;;;;19.17;14.70;;;;;;;20.42;62.42;100533.47;5018121;28;20076;-87
2021/06/06 13:12:45;;;;;;;21.65;15.73;;;;;;;20.42;62.24;100532.66;5018054;28;20136;-86
2021/06/06 13:15:19;;;;;;;20.25;16.17;;;;;;;20.38;62.44;100534.75;5017868;28;20050;-86
2021/06/06 13:17:53;;;;;;;19.30;15.55;;;;;;;20.37;62.42;100533.03;5017997;28;20045;-86
2021/06/06 13:20:30;;;;;;;23.73;18.00;;;;;;;20.34;62.08;100540.50;5015881;28;20083;-86
2021/06/06 13:23:24;;;;;;;20.83;16.48;;;;;;;20.33;62.25;100534.28;5017722;28;20145;-85
2021/06/06 13:25:51;;;;;;;20.50;15.35;;;;;;;20.33;62.15;100536.13;5017324;28;20060;-85
2021/06/06 13:28:17;;;;;;;21.02;16.13;;;;;;;20.29;62.45;100536.38;5034033;28;20061;-86
2021/06/06 13:30:46;;;;;;;19.38;15.60;;;;;;;20.27;62.55;100537.50;5033831;28;20049;-86
2021/06/06 13:33:15;;;;;;;19.90;14.88;;;;;;;20.26;62.73;100535.81;5045002;28;20055;-85
2021/06/06 13:36:38;;;;;;;23.42;15.52;;;;;;;20.21;62.78;100533.53;5037296;28;20386;-92
2021/06/06 13:42:53;;;;;;;18.73;14.10;;;;;;;20.25;62.60;100540.31;5055272;28;20079;-92
2021/06/06 13:49:00;;;;;;;17.52;13.55;;;;;;;20.25;62.91;100529.59;5035243;28;20041;-92
2021/06/06 13:55:19;;;;;;;22.80;15.82;;;;;;;20.24;62.52;100529.75;5035564;28;20490;-90
2021/06/06 13:57:47;;;;;;;21.85;16.50;;;;;;;20.23;62.61;100542.28;5034856;28;20140;-87
2021/06/06 14:00:18;;;;;;;24.88;16.90;;;;;;;20.22;62.92;100539.72;5018287;28;20084;-89
2021/06/06 14:02:49;;;;;;;23.20;16.80;;;;;;;20.22;62.91;100548.56;5036719;28;20051;-88
2021/06/06 14:05:34;;;;;;;25.77;17.25;;;;;;;20.20;63.03;100547.00;5053992;28;20045;-89